Terminal Aerodrome Forecast
Issued by NWS

Home | Current Version | Previous Version | Text Only | Print | Product List | Glossary On
Versions: 1 2 3 4 5 6 7 8 9 10 11 12 13 14 15 16 17 18 19 20 21 22 23 24
000
FTUS44 KOUN 131120
TAFPNC
TAF
KPNC 131120Z 1312/1412 07010KT P6SM BKN130
     FM131500 12010KT P6SM FEW035 SCT130
     FM140000 12009KT P6SM OVC050
     FM140300 13016KT P6SM OVC050
     FM140600 14018KT P6SM OVC015
     FM140900 15015KT 5SM BR OVC007=

USA.gov is the U.S. government's official web portal to all federal, state and local government web resources and services.